Letecké školy

Flying Academy USA

Flying Academy USA

Miami, Florida        Aktuální teplota 28 °C

Flying Academy ČR

Flying Academy ČR

Praha & Brno, Česká Republika        Aktuální teplota -0 °C

Letecká škola Flying Academy

Letecká škola Flying Academy má více než 12 let zkušeností s výcvikem profesionálních pilotů v Evropě a přes 30 let v USA. Jsme jednou z nejdynamičtěji rostoucích leteckých škol poskytujících vysoký standard leteckého výcviku v prostředí simulujícím atmosféru v aeroliniích.

  • Flying Academy je EASA certifikovaná výcviková organizace (CZ/ATO-014) a FAA certifikovaná letecká škola podle Part 141 & 61, působíme v České Republice a v USA
  • Naši instruktoři jsou současně i piloty aerolinií – získáte reálné zkušenosti pilota
  • Dostanete zdarma iPad mini při zahájení ab-initio výcvikového programu
  • Naše výcvikové kurzy jsou navrženy pro budoucí EASA a FAA soukromé a komerční piloty

Vítejte ve světě, kde práce je náš koníček! Každý v našem týmu ve Flying Academy se těší z úspěchů našich studentů. Diky skvělému zázemí, přístupu a nabídce naší letecké školy se ujistíte, že jste na správném místě k dosažení Vašich snů ve Flying Academy.

Proč si vybrat Flying Academy - přečtěte si více >>

 

Novinky

Připravte se na kariéru dopravního pilota v kurzu ATPL-650 v Praze a Brně

Sníte o kariéře profesionálního pilota, ale nevíte jak začít? Flying Academy nabízí možnost profesionálního vzdělání v oblasti teorie ATPL-650, která je pro kariéru pilota aerolinií naprosto nezbytná. Kurzy ATPL teorie - 650 se budou konat od 12.11.2016 v Praze a od 19.11.2016 v Brně.  

 

 

celý článek >>

Zdokonalte si ICAO leteckou angličtinu v intenzivním kurzu v Praze a Brně

Chcete si zdokonalit svoji ICAO leteckou angličtinu či se připravit na zkoušku? Flying Academy nabízí možnost 24 hodinového intenzivního kurzu letecké angličtiny v Brně a v Praze. Tento zdokonalovací intenzivní kurz začíná již 12. 11. 2016 a 10.12. 2016 v Brně i Praze . Pro zájemce bude možnost absolvovat na konci kurzu zkoušku z ICAO angličtiny za cenu 2790,-kč + 21% DPH.

celý článek >>

Flying Academy zahájila partnerský program s Bristol Groundschool

Flying Academy zahájila partnerský program s britskou Bristol Groundschool, která Flying Academy poskytne přístup k CBT (Computer Based Training) pro teoretické kurzy programu EASA ATPL. Tento systém zajistí studentům programu EASA ATPL přístup k nejnovějším verzím materiálů a otázek z jeho portfólia.

Díky této spolupráci s Bristol GS budou mít studenti Flying Academy přístup k profesionálním programům a materiálům, a to vždy v té nejaktuálnější verzi. Tyto materiály studentům umožní nejlepší možnou přípravu k úspěšnému složení zkoušek CAA. Program CBT nabízí studium za pomoci mnoha interaktivních materiálů, které studenti ocení zvláště při samostudiu. Student má k dispozici odborná videa, články a diskuze. Své schopnosti si pak sám otestuje v jednotlivých testovacích modulech.

celý článek >>

více článků

Blog

Zahraniční letecká zkušenost, kterou získáte jen s Flying Academy v Miami

Díky otevření nové pobočky Flying Academy v Miami ve Spojených státech dostalo mnoho studentů, kteří dosud znali jen evropský vzdušný prostor, příležitost vyzkoušet si výcvik dle předpisů FAA v americkém vzdušném prostoru. Díky výhodným balíčkům Time Buildingu, které Flying Academy nabízí, se pilotům s evropskou licencí veškerý nálet v Americe započítá po jejich návratu do České republiky.

Student Abdollah Mohammadpour, který se zúčastnil výcviku 0-ATPL, vysvětluje, jak tato zkušenost změnila celý jeho pohled na letecký výcvik: "Jako student, pilot se zkušenostmi pouze v neřízeném vzdušném prostoru s malým provozem, jsem se rozhodl využít příležitosti od Flying Academy a rozšířit své znalosti v USA. Po příletu do Miami na mě čekal řidič od Flying Academy, který mě odvezl do vily. Vila se nacházela jen pár minut jízdy od letiště a měla na zahradě i velký bazén. Personál Flying Academy mi se vším pomáhal stejně jako v Praze."

pokračovat ve čtení >>

více článků

0 - 500 hodin

Flying Academy s.r.o.
Beranových 130
Praha 9 - Letnany
199 00

800 884 888

+420 228 882 444

www.flyingacademy.cz
pilot@FlyingAcademy.cz

facebook.com/FlyingAcademy
twitter.com/FlyingAcademy
youtube.com/FlyingAcademy

Aktuální počasí

LKTB

LKTB 061530Z 31009KT 9999 BKN041 01/M04 Q1030 NOSIG

LKPR

LKPR 061530Z 24007KT 9999 BKN033 M01/M03 Q1031 NOSIG

LKKV

LKKV 061530Z VRB01KT 0900 R29/1600U FZFG OVC002 M05/M06 Q1031

KTMB

KTMB 061501Z AUTO 19008G15KT 10SM SCT022 28/23 A3001 RMK AO2 T02830228

Začněte program 0-1500 a získejte 1500 letových hodin s Flying Academy Získejte více informací